sensor_id;sensor_type;location;lat;lon;timestamp;temperature;humidity
8965;DHT22;4517;49.020;12.066;2022-10-16T00:01:10;13.90;99.90
8965;DHT22;4517;49.020;12.066;2022-10-16T00:03:37;13.90;99.90
8965;DHT22;4517;49.020;12.066;2022-10-16T00:06:03;14.00;99.90
8965;DHT22;4517;49.020;12.066;2022-10-16T00:08:30;14.00;99.90
8965;DHT22;4517;49.020;12.066;2022-10-16T00:11:02;13.90;99.90
8965;DHT22;4517;49.020;12.066;2022-10-16T00:13:29;13.90;99.90
8965;DHT22;4517;49.020;12.066;2022-10-16T00:15:56;14.00;99.90
8965;DHT22;4517;49.020;12.066;2022-10-16T00:18:22;14.00;99.90
8965;DHT22;4517;49.020;12.066;2022-10-16T00:20:48;14.00;99.90
8965;DHT22;4517;49.020;12.066;2022-10-16T00:23:13;14.00;99.90
8965;DHT22;4517;49.020;12.066;2022-10-16T00:25:39;14.00;99.90
8965;DHT22;4517;49.020;12.066;2022-10-16T00:28:04;14.00;99.90
8965;DHT22;4517;49.020;12.066;2022-10-16T00:30:30;14.00;99.90
8965;DHT22;4517;49.020;12.066;2022-10-16T00:32:55;14.00;99.90
8965;DHT22;4517;49.020;12.066;2022-10-16T00:35:21;14.00;99.90
8965;DHT22;4517;49.020;12.066;2022-10-16T00:37:47;14.00;99.90
8965;DHT22;4517;49.020;12.066;2022-10-16T00:40:12;14.00;99.90
8965;DHT22;4517;49.020;12.066;2022-10-16T00:42:38;14.00;99.90
8965;DHT22;4517;49.020;12.066;2022-10-16T00:45:04;14.00;99.90
8965;DHT22;4517;49.020;12.066;2022-10-16T00:47:34;14.00;99.90
8965;DHT22;4517;49.020;12.066;2022-10-16T00:50:09;14.00;99.90
8965;DHT22;4517;49.020;12.066;2022-10-16T00:52:39;14.00;99.90
8965;DHT22;4517;49.020;12.066;2022-10-16T00:55:06;14.00;99.90
8965;DHT22;4517;49.020;12.066;2022-10-16T00:57:33;13.90;99.90
8965;DHT22;4517;49.020;12.066;2022-10-16T01:00:00;13.90;99.90
8965;DHT22;4517;49.020;12.066;2022-10-16T01:02:25;14.00;99.90
8965;DHT22;4517;49.020;12.066;2022-10-16T01:04:52;14.00;99.90
8965;DHT22;4517;49.020;12.066;2022-10-16T01:13:07;13.90;99.90
8965;DHT22;4517;49.020;12.066;2022-10-16T01:21:10;13.90;99.90
8965;DHT22;4517;49.020;12.066;2022-10-16T01:24:08;13.90;99.90
8965;DHT22;4517;49.020;12.066;2022-10-16T01:29:39;13.90;99.90
8965;DHT22;4517;49.020;12.066;2022-10-16T01:35:11;13.80;99.90
8965;DHT22;4517;49.020;12.066;2022-10-16T01:37:43;13.80;99.90
8965;DHT22;4517;49.020;12.066;2022-10-16T01:40:14;13.80;99.90
8965;DHT22;4517;49.020;12.066;2022-10-16T01:42:44;13.80;99.90
8965;DHT22;4517;49.020;12.066;2022-10-16T01:45:13;13.80;99.90
8965;DHT22;4517;49.020;12.066;2022-10-16T01:47:40;13.80;99.90
8965;DHT22;4517;49.020;12.066;2022-10-16T01:50:08;13.80;99.90
8965;DHT22;4517;49.020;12.066;2022-10-16T01:52:39;13.80;99.90
8965;DHT22;4517;49.020;12.066;2022-10-16T01:55:08;13.80;99.90
8965;DHT22;4517;49.020;12.066;2022-10-16T01:57:36;13.80;99.90
8965;DHT22;4517;49.020;12.066;2022-10-16T02:00:08;13.80;99.90
8965;DHT22;4517;49.020;12.066;2022-10-16T02:02:34;13.70;99.90
8965;DHT22;4517;49.020;12.066;2022-10-16T02:05:24;13.70;99.90
8965;DHT22;4517;49.020;12.066;2022-10-16T02:07:51;13.70;99.90
8965;DHT22;4517;49.020;12.066;2022-10-16T02:10:17;13.70;99.90
8965;DHT22;4517;49.020;12.066;2022-10-16T02:12:50;13.70;99.90
8965;DHT22;4517;49.020;12.066;2022-10-16T02:15:19;13.70;99.90
8965;DHT22;4517;49.020;12.066;2022-10-16T02:17:44;13.70;99.90
8965;DHT22;4517;49.020;12.066;2022-10-16T02:20:10;13.70;99.90
8965;DHT22;4517;49.020;12.066;2022-10-16T02:22:40;13.70;99.90
8965;DHT22;4517;49.020;12.066;2022-10-16T02:25:15;13.70;99.90
8965;DHT22;4517;49.020;12.066;2022-10-16T02:27:55;13.70;99.90
8965;DHT22;4517;49.020;12.066;2022-10-16T02:30:25;13.70;99.90
8965;DHT22;4517;49.020;12.066;2022-10-16T02:32:53;13.70;99.90
8965;DHT22;4517;49.020;12.066;2022-10-16T02:35:20;13.70;99.90
8965;DHT22;4517;49.020;12.066;2022-10-16T02:37:48;13.70;99.90
8965;DHT22;4517;49.020;12.066;2022-10-16T02:40:14;13.70;99.90
8965;DHT22;4517;49.020;12.066;2022-10-16T02:42:40;13.70;99.90
8965;DHT22;4517;49.020;12.066;2022-10-16T02:45:08;13.70;99.90
8965;DHT22;4517;49.020;12.066;2022-10-16T02:47:34;13.60;99.90
8965;DHT22;4517;49.020;12.066;2022-10-16T02:49:59;13.60;99.90
8965;DHT22;4517;49.020;12.066;2022-10-16T02:52:25;13.50;99.90
8965;DHT22;4517;49.020;12.066;2022-10-16T02:54:51;13.60;99.90
8965;DHT22;4517;49.020;12.066;2022-10-16T02:57:17;13.60;99.90
8965;DHT22;4517;49.020;12.066;2022-10-16T02:59:43;13.60;99.90
8965;DHT22;4517;49.020;12.066;2022-10-16T03:02:09;13.60;99.90
8965;DHT22;4517;49.020;12.066;2022-10-16T03:04:34;13.60;99.90
8965;DHT22;4517;49.020;12.066;2022-10-16T03:07:00;13.70;99.90
8965;DHT22;4517;49.020;12.066;2022-10-16T03:09:25;13.70;99.90
8965;DHT22;4517;49.020;12.066;2022-10-16T03:11:51;13.70;99.90
8965;DHT22;4517;49.020;12.066;2022-10-16T03:14:17;13.70;99.90
8965;DHT22;4517;49.020;12.066;2022-10-16T03:16:43;13.80;99.90
8965;DHT22;4517;49.020;12.066;2022-10-16T03:19:08;13.70;99.90
8965;DHT22;4517;49.020;12.066;2022-10-16T03:21:34;13.70;99.90
8965;DHT22;4517;49.020;12.066;2022-10-16T03:23:59;13.70;99.90
8965;DHT22;4517;49.020;12.066;2022-10-16T03:26:25;13.70;99.90
8965;DHT22;4517;49.020;12.066;2022-10-16T03:28:50;13.70;99.90
8965;DHT22;4517;49.020;12.066;2022-10-16T03:31:16;13.80;99.90
8965;DHT22;4517;49.020;12.066;2022-10-16T03:33:41;13.80;99.90
8965;DHT22;4517;49.020;12.066;2022-10-16T03:36:07;13.80;99.90
8965;DHT22;4517;49.020;12.066;2022-10-16T03:38:33;13.80;99.90
8965;DHT22;4517;49.020;12.066;2022-10-16T03:40:58;13.80;99.90
8965;DHT22;4517;49.020;12.066;2022-10-16T03:43:24;13.80;99.90
8965;DHT22;4517;49.020;12.066;2022-10-16T03:45:52;13.80;99.90
8965;DHT22;4517;49.020;12.066;2022-10-16T03:48:18;13.80;99.90
8965;DHT22;4517;49.020;12.066;2022-10-16T03:50:44;13.80;99.90
8965;DHT22;4517;49.020;12.066;2022-10-16T03:53:10;13.80;99.90
8965;DHT22;4517;49.020;12.066;2022-10-16T03:55:35;13.80;99.90
8965;DHT22;4517;49.020;12.066;2022-10-16T03:58:01;13.80;99.90
8965;DHT22;4517;49.020;12.066;2022-10-16T04:00:27;13.70;99.90
8965;DHT22;4517;49.020;12.066;2022-10-16T04:02:52;13.70;99.90
8965;DHT22;4517;49.020;12.066;2022-10-16T04:05:18;13.60;99.90
8965;DHT22;4517;49.020;12.066;2022-10-16T04:07:44;13.40;99.90
8965;DHT22;4517;49.020;12.066;2022-10-16T04:10:09;13.30;99.90
8965;DHT22;4517;49.020;12.066;2022-10-16T04:12:35;13.20;99.90
8965;DHT22;4517;49.020;12.066;2022-10-16T04:15:01;13.30;99.90
8965;DHT22;4517;49.020;12.066;2022-10-16T04:17:26;13.20;99.90
8965;DHT22;4517;49.020;12.066;2022-10-16T04:19:52;13.30;99.90
8965;DHT22;4517;49.020;12.066;2022-10-16T04:22:17;13.30;99.90
8965;DHT22;4517;49.020;12.066;2022-10-16T04:24:43;13.40;99.90
8965;DHT22;4517;49.020;12.066;2022-10-16T04:27:08;13.50;99.90
8965;DHT22;4517;49.020;12.066;2022-10-16T04:29:34;13.50;99.90
8965;DHT22;4517;49.020;12.066;2022-10-16T04:32:00;13.60;99.90
8965;DHT22;4517;49.020;12.066;2022-10-16T04:34:25;13.60;99.90
8965;DHT22;4517;49.020;12.066;2022-10-16T04:36:51;13.70;99.90
8965;DHT22;4517;49.020;12.066;2022-10-16T04:39:16;13.70;99.90
8965;DHT22;4517;49.020;12.066;2022-10-16T04:41:42;13.70;99.90
8965;DHT22;4517;49.020;12.066;2022-10-16T04:44:07;13.70;99.90
8965;DHT22;4517;49.020;12.066;2022-10-16T04:46:33;13.70;99.90
8965;DHT22;4517;49.020;12.066;2022-10-16T04:48:59;13.70;99.90
8965;DHT22;4517;49.020;12.066;2022-10-16T04:51:24;13.70;99.90
8965;DHT22;4517;49.020;12.066;2022-10-16T04:53:51;13.70;99.90
8965;DHT22;4517;49.020;12.066;2022-10-16T04:56:17;13.70;99.90
8965;DHT22;4517;49.020;12.066;2022-10-16T04:58:42;13.70;99.90
8965;DHT22;4517;49.020;12.066;2022-10-16T05:01:08;13.60;99.90
8965;DHT22;4517;49.020;12.066;2022-10-16T05:03:34;13.60;99.90
8965;DHT22;4517;49.020;12.066;2022-10-16T05:05:59;13.60;99.90
8965;DHT22;4517;49.020;12.066;2022-10-16T05:08:25;13.70;99.90
8965;DHT22;4517;49.020;12.066;2022-10-16T05:10:50;13.60;99.90
8965;DHT22;4517;49.020;12.066;2022-10-16T05:13:16;13.60;99.90
8965;DHT22;4517;49.020;12.066;2022-10-16T05:15:41;13.70;99.90
8965;DHT22;4517;49.020;12.066;2022-10-16T05:18:08;13.70;99.90
8965;DHT22;4517;49.020;12.066;2022-10-16T05:20:34;13.70;99.90
8965;DHT22;4517;49.020;12.066;2022-10-16T05:22:59;13.70;99.90
8965;DHT22;4517;49.020;12.066;2022-10-16T05:25:25;13.70;99.90
8965;DHT22;4517;49.020;12.066;2022-10-16T05:27:51;13.60;99.90
8965;DHT22;4517;49.020;12.066;2022-10-16T05:30:17;13.60;99.90
8965;DHT22;4517;49.020;12.066;2022-10-16T05:32:47;13.60;99.90
8965;DHT22;4517;49.020;12.066;2022-10-16T05:35:14;13.60;99.90
8965;DHT22;4517;49.020;12.066;2022-10-16T05:37:39;13.70;99.90
8965;DHT22;4517;49.020;12.066;2022-10-16T05:40:05;13.70;99.90
8965;DHT22;4517;49.020;12.066;2022-10-16T05:42:31;13.70;99.90
8965;DHT22;4517;49.020;12.066;2022-10-16T05:44:57;13.70;99.90
8965;DHT22;4517;49.020;12.066;2022-10-16T05:47:22;13.70;99.90
8965;DHT22;4517;49.020;12.066;2022-10-16T05:49:48;13.70;99.90
8965;DHT22;4517;49.020;12.066;2022-10-16T05:52:13;13.70;99.90
8965;DHT22;4517;49.020;12.066;2022-10-16T05:54:39;13.70;99.90
8965;DHT22;4517;49.020;12.066;2022-10-16T05:57:04;13.70;99.90
8965;DHT22;4517;49.020;12.066;2022-10-16T05:59:31;13.70;99.90
8965;DHT22;4517;49.020;12.066;2022-10-16T06:01:57;13.70;99.90
8965;DHT22;4517;49.020;12.066;2022-10-16T06:04:22;13.70;99.90
8965;DHT22;4517;49.020;12.066;2022-10-16T06:06:48;13.70;99.90
8965;DHT22;4517;49.020;12.066;2022-10-16T06:09:13;13.70;99.90
8965;DHT22;4517;49.020;12.066;2022-10-16T06:11:39;13.70;99.90
8965;DHT22;4517;49.020;12.066;2022-10-16T06:14:04;13.70;99.90
8965;DHT22;4517;49.020;12.066;2022-10-16T06:16:33;13.70;99.90
8965;DHT22;4517;49.020;12.066;2022-10-16T06:19:00;13.70;99.90
8965;DHT22;4517;49.020;12.066;2022-10-16T06:21:27;13.80;99.90
8965;DHT22;4517;49.020;12.066;2022-10-16T06:23:53;13.90;99.90
8965;DHT22;4517;49.020;12.066;2022-10-16T06:26:22;13.90;99.90
8965;DHT22;4517;49.020;12.066;2022-10-16T06:28:48;13.90;99.90
8965;DHT22;4517;49.020;12.066;2022-10-16T06:31:14;13.90;99.90
8965;DHT22;4517;49.020;12.066;2022-10-16T06:33:40;13.90;99.90
8965;DHT22;4517;49.020;12.066;2022-10-16T06:36:10;14.00;99.90
8965;DHT22;4517;49.020;12.066;2022-10-16T06:38:37;14.10;99.90
8965;DHT22;4517;49.020;12.066;2022-10-16T06:41:04;14.10;99.90
8965;DHT22;4517;49.020;12.066;2022-10-16T06:43:30;14.00;99.90
8965;DHT22;4517;49.020;12.066;2022-10-16T06:46:04;14.00;99.90
8965;DHT22;4517;49.020;12.066;2022-10-16T06:48:30;14.00;99.90
8965;DHT22;4517;49.020;12.066;2022-10-16T06:51:22;14.10;99.90
8965;DHT22;4517;49.020;12.066;2022-10-16T06:53:53;14.10;99.90
8965;DHT22;4517;49.020;12.066;2022-10-16T06:56:23;14.10;99.90
8965;DHT22;4517;49.020;12.066;2022-10-16T06:58:49;14.20;99.90
8965;DHT22;4517;49.020;12.066;2022-10-16T07:01:16;14.20;99.90
8965;DHT22;4517;49.020;12.066;2022-10-16T07:03:43;14.20;99.90
8965;DHT22;4517;49.020;12.066;2022-10-16T07:06:11;14.10;99.90
8965;DHT22;4517;49.020;12.066;2022-10-16T07:08:39;14.20;99.90
8965;DHT22;4517;49.020;12.066;2022-10-16T07:11:11;14.10;99.90
8965;DHT22;4517;49.020;12.066;2022-10-16T07:13:38;14.20;99.90
8965;DHT22;4517;49.020;12.066;2022-10-16T07:16:08;14.40;99.90
8965;DHT22;4517;49.020;12.066;2022-10-16T07:18:35;14.60;99.90
8965;DHT22;4517;49.020;12.066;2022-10-16T07:21:05;14.80;99.90
8965;DHT22;4517;49.020;12.066;2022-10-16T07:23:31;15.00;99.90
8965;DHT22;4517;49.020;12.066;2022-10-16T07:25:57;15.20;99.90
8965;DHT22;4517;49.020;12.066;2022-10-16T07:28:22;15.30;99.90
8965;DHT22;4517;49.020;12.066;2022-10-16T07:30:48;15.30;99.90
8965;DHT22;4517;49.020;12.066;2022-10-16T07:33:14;15.40;99.90
8965;DHT22;4517;49.020;12.066;2022-10-16T07:35:53;15.40;99.90
8965;DHT22;4517;49.020;12.066;2022-10-16T07:38:20;15.40;99.90
8965;DHT22;4517;49.020;12.066;2022-10-16T07:40:46;15.50;99.90
8965;DHT22;4517;49.020;12.066;2022-10-16T07:43:12;15.70;99.90
8965;DHT22;4517;49.020;12.066;2022-10-16T07:45:47;15.80;99.90
8965;DHT22;4517;49.020;12.066;2022-10-16T07:48:13;15.90;99.90
8965;DHT22;4517;49.020;12.066;2022-10-16T07:50:39;16.20;99.90
8965;DHT22;4517;49.020;12.066;2022-10-16T07:53:04;16.50;99.90
8965;DHT22;4517;49.020;12.066;2022-10-16T07:55:30;16.80;99.90
8965;DHT22;4517;49.020;12.066;2022-10-16T07:57:55;17.00;99.90
8965;DHT22;4517;49.020;12.066;2022-10-16T08:00:21;16.90;99.90
8965;DHT22;4517;49.020;12.066;2022-10-16T08:02:46;16.60;99.90
8965;DHT22;4517;49.020;12.066;2022-10-16T08:05:12;16.60;99.90
8965;DHT22;4517;49.020;12.066;2022-10-16T08:07:38;16.80;99.90
8965;DHT22;4517;49.020;12.066;2022-10-16T08:10:04;16.80;99.90
8965;DHT22;4517;49.020;12.066;2022-10-16T08:12:29;17.00;99.90
8965;DHT22;4517;49.020;12.066;2022-10-16T08:14:55;16.90;99.90
8965;DHT22;4517;49.020;12.066;2022-10-16T08:17:20;17.00;99.90
8965;DHT22;4517;49.020;12.066;2022-10-16T08:19:47;17.30;99.90
8965;DHT22;4517;49.020;12.066;2022-10-16T08:22:13;17.50;99.90
8965;DHT22;4517;49.020;12.066;2022-10-16T08:24:39;17.60;99.90
8965;DHT22;4517;49.020;12.066;2022-10-16T08:27:05;17.70;99.90
8965;DHT22;4517;49.020;12.066;2022-10-16T08:29:31;17.70;99.90
8965;DHT22;4517;49.020;12.066;2022-10-16T08:31:56;17.80;99.90
8965;DHT22;4517;49.020;12.066;2022-10-16T08:34:22;17.80;99.90
8965;DHT22;4517;49.020;12.066;2022-10-16T08:36:47;17.90;99.90
8965;DHT22;4517;49.020;12.066;2022-10-16T08:39:13;18.00;99.90
8965;DHT22;4517;49.020;12.066;2022-10-16T08:44:58;17.90;99.90
8965;DHT22;4517;49.020;12.066;2022-10-16T08:50:29;17.30;99.90
8965;DHT22;4517;49.020;12.066;2022-10-16T08:52:55;17.10;99.90
8965;DHT22;4517;49.020;12.066;2022-10-16T08:57:53;17.00;99.90
8965;DHT22;4517;49.020;12.066;2022-10-16T09:00:19;17.00;99.90
8965;DHT22;4517;49.020;12.066;2022-10-16T09:02:55;17.10;99.90
8965;DHT22;4517;49.020;12.066;2022-10-16T09:05:36;17.10;99.90
8965;DHT22;4517;49.020;12.066;2022-10-16T09:19:51;17.50;99.90
8965;DHT22;4517;49.020;12.066;2022-10-16T09:22:22;17.50;99.90
8965;DHT22;4517;49.020;12.066;2022-10-16T09:24:51;17.70;99.90
8965;DHT22;4517;49.020;12.066;2022-10-16T09:27:17;17.90;99.90
8965;DHT22;4517;49.020;12.066;2022-10-16T09:29:42;18.00;99.90
8965;DHT22;4517;49.020;12.066;2022-10-16T09:32:14;18.20;99.90
8965;DHT22;4517;49.020;12.066;2022-10-16T09:34:55;18.30;99.90
8965;DHT22;4517;49.020;12.066;2022-10-16T09:37:22;18.50;99.90
8965;DHT22;4517;49.020;12.066;2022-10-16T09:39:51;18.60;99.90
8965;DHT22;4517;49.020;12.066;2022-10-16T09:44:47;18.80;99.90
8965;DHT22;4517;49.020;12.066;2022-10-16T09:47:15;18.80;99.90
8965;DHT22;4517;49.020;12.066;2022-10-16T09:50:04;18.70;99.90
8965;DHT22;4517;49.020;12.066;2022-10-16T09:52:32;18.80;99.90
8965;DHT22;4517;49.020;12.066;2022-10-16T09:55:00;18.80;99.90
8965;DHT22;4517;49.020;12.066;2022-10-16T09:57:26;18.80;99.90
8965;DHT22;4517;49.020;12.066;2022-10-16T09:59:56;18.80;99.90
8965;DHT22;4517;49.020;12.066;2022-10-16T10:02:35;18.90;99.90
8965;DHT22;4517;49.020;12.066;2022-10-16T10:05:01;18.90;99.90
8965;DHT22;4517;49.020;12.066;2022-10-16T10:07:31;19.00;99.90
8965;DHT22;4517;49.020;12.066;2022-10-16T10:10:03;19.00;99.90
8965;DHT22;4517;49.020;12.066;2022-10-16T10:12:31;19.00;99.90
8965;DHT22;4517;49.020;12.066;2022-10-16T10:15:15;19.10;99.90
8965;DHT22;4517;49.020;12.066;2022-10-16T10:17:55;19.20;99.90
8965;DHT22;4517;49.020;12.066;2022-10-16T10:20:30;19.20;99.90
8965;DHT22;4517;49.020;12.066;2022-10-16T10:22:58;19.20;99.90
8965;DHT22;4517;49.020;12.066;2022-10-16T10:40:12;20.00;99.90
8965;DHT22;4517;49.020;12.066;2022-10-16T10:42:50;20.40;99.90
8965;DHT22;4517;49.020;12.066;2022-10-16T10:45:44;20.70;99.90
8965;DHT22;4517;49.020;12.066;2022-10-16T10:51:05;20.50;99.90
8965;DHT22;4517;49.020;12.066;2022-10-16T10:56:19;20.60;99.90
8965;DHT22;4517;49.020;12.066;2022-10-16T11:01:39;21.10;99.90
8965;DHT22;4517;49.020;12.066;2022-10-16T11:04:19;21.10;99.90
8965;DHT22;4517;49.020;12.066;2022-10-16T11:06:55;21.30;99.90
8965;DHT22;4517;49.020;12.066;2022-10-16T11:09:28;21.60;99.90
8965;DHT22;4517;49.020;12.066;2022-10-16T11:12:07;21.70;99.90
8965;DHT22;4517;49.020;12.066;2022-10-16T11:14:42;21.80;99.90
8965;DHT22;4517;49.020;12.066;2022-10-16T11:17:27;22.00;99.90
8965;DHT22;4517;49.020;12.066;2022-10-16T11:20:00;22.00;99.90
8965;DHT22;4517;49.020;12.066;2022-10-16T11:22:34;21.70;99.90
8965;DHT22;4517;49.020;12.066;2022-10-16T11:28:01;22.20;99.90
8965;DHT22;4517;49.020;12.066;2022-10-16T11:30:31;22.30;99.90
8965;DHT22;4517;49.020;12.066;2022-10-16T11:35:57;22.70;99.90
8965;DHT22;4517;49.020;12.066;2022-10-16T11:41:28;22.50;99.90
8965;DHT22;4517;49.020;12.066;2022-10-16T11:44:32;22.60;99.90
8965;DHT22;4517;49.020;12.066;2022-10-16T11:49:57;22.60;99.90
8965;DHT22;4517;49.020;12.066;2022-10-16T11:52:33;22.50;99.90
8965;DHT22;4517;49.020;12.066;2022-10-16T11:55:04;22.40;99.90
8965;DHT22;4517;49.020;12.066;2022-10-16T11:57:35;22.40;99.90
8965;DHT22;4517;49.020;12.066;2022-10-16T12:00:09;22.30;99.90
8965;DHT22;4517;49.020;12.066;2022-10-16T12:05:57;21.90;99.90
8965;DHT22;4517;49.020;12.066;2022-10-16T12:08:24;21.80;99.90
8965;DHT22;4517;49.020;12.066;2022-10-16T12:10:50;21.90;99.90
8965;DHT22;4517;49.020;12.066;2022-10-16T12:13:39;22.00;99.90
8965;DHT22;4517;49.020;12.066;2022-10-16T12:18:38;22.00;99.90
8965;DHT22;4517;49.020;12.066;2022-10-16T12:21:05;22.00;99.90
8965;DHT22;4517;49.020;12.066;2022-10-16T12:23:33;22.20;99.90
8965;DHT22;4517;49.020;12.066;2022-10-16T12:26:01;22.40;99.90
8965;DHT22;4517;49.020;12.066;2022-10-16T12:28:30;22.50;99.90
8965;DHT22;4517;49.020;12.066;2022-10-16T12:31:04;22.30;99.90
8965;DHT22;4517;49.020;12.066;2022-10-16T12:33:41;22.30;99.90
8965;DHT22;4517;49.020;12.066;2022-10-16T12:36:13;22.30;99.90
8965;DHT22;4517;49.020;12.066;2022-10-16T12:38:49;22.10;99.90
8965;DHT22;4517;49.020;12.066;2022-10-16T12:41:28;21.90;99.90
8965;DHT22;4517;49.020;12.066;2022-10-16T12:43:54;21.70;99.90
8965;DHT22;4517;49.020;12.066;2022-10-16T12:56:43;21.60;99.90
8965;DHT22;4517;49.020;12.066;2022-10-16T12:59:30;21.60;99.90
8965;DHT22;4517;49.020;12.066;2022-10-16T13:02:21;21.60;99.90
8965;DHT22;4517;49.020;12.066;2022-10-16T13:10:28;21.60;99.90
8965;DHT22;4517;49.020;12.066;2022-10-16T13:18:16;21.30;99.90
8965;DHT22;4517;49.020;12.066;2022-10-16T13:23:50;21.40;99.90
8965;DHT22;4517;49.020;12.066;2022-10-16T13:26:19;21.50;99.90
8965;DHT22;4517;49.020;12.066;2022-10-16T13:28:47;21.60;99.90
8965;DHT22;4517;49.020;12.066;2022-10-16T13:31:17;21.80;99.90
8965;DHT22;4517;49.020;12.066;2022-10-16T13:33:47;21.80;99.90
8965;DHT22;4517;49.020;12.066;2022-10-16T13:36:34;21.80;99.90
8965;DHT22;4517;49.020;12.066;2022-10-16T13:39:10;21.80;99.90
8965;DHT22;4517;49.020;12.066;2022-10-16T13:41:37;21.80;99.90
8965;DHT22;4517;49.020;12.066;2022-10-16T13:44:03;21.80;99.90
8965;DHT22;4517;49.020;12.066;2022-10-16T13:46:29;21.80;99.90
8965;DHT22;4517;49.020;12.066;2022-10-16T13:49:19;21.90;99.90
8965;DHT22;4517;49.020;12.066;2022-10-16T13:51:59;22.10;99.90
8965;DHT22;4517;49.020;12.066;2022-10-16T13:54:26;22.10;99.90
8965;DHT22;4517;49.020;12.066;2022-10-16T13:56:54;22.10;99.90
8965;DHT22;4517;49.020;12.066;2022-10-16T13:59:33;22.00;99.90
8965;DHT22;4517;49.020;12.066;2022-10-16T14:01:59;21.90;99.90
8965;DHT22;4517;49.020;12.066;2022-10-16T14:04:32;22.00;99.90
8965;DHT22;4517;49.020;12.066;2022-10-16T14:06:58;21.90;99.90
8965;DHT22;4517;49.020;12.066;2022-10-16T14:09:25;21.90;99.90
8965;DHT22;4517;49.020;12.066;2022-10-16T14:12:00;21.80;99.90
8965;DHT22;4517;49.020;12.066;2022-10-16T14:14:43;21.80;99.90
8965;DHT22;4517;49.020;12.066;2022-10-16T14:17:22;21.70;99.90
8965;DHT22;4517;49.020;12.066;2022-10-16T14:19:51;21.70;99.90
8965;DHT22;4517;49.020;12.066;2022-10-16T14:22:33;21.70;99.90
8965;DHT22;4517;49.020;12.066;2022-10-16T14:25:00;21.70;99.90
8965;DHT22;4517;49.020;12.066;2022-10-16T14:27:33;21.60;99.90
8965;DHT22;4517;49.020;12.066;2022-10-16T14:32:33;21.10;99.90
8965;DHT22;4517;49.020;12.066;2022-10-16T14:34:59;21.00;99.90
8965;DHT22;4517;49.020;12.066;2022-10-16T14:37:29;21.00;99.90
8965;DHT22;4517;49.020;12.066;2022-10-16T14:39:56;20.90;99.90
8965;DHT22;4517;49.020;12.066;2022-10-16T14:42:25;20.90;99.90
8965;DHT22;4517;49.020;12.066;2022-10-16T14:44:52;20.90;99.90
8965;DHT22;4517;49.020;12.066;2022-10-16T14:47:21;20.80;99.90
8965;DHT22;4517;49.020;12.066;2022-10-16T14:49:52;20.90;99.90
8965;DHT22;4517;49.020;12.066;2022-10-16T14:52:20;20.90;99.90
8965;DHT22;4517;49.020;12.066;2022-10-16T14:54:49;20.90;99.90
8965;DHT22;4517;49.020;12.066;2022-10-16T14:57:20;21.00;99.90
8965;DHT22;4517;49.020;12.066;2022-10-16T14:59:47;21.00;99.90
8965;DHT22;4517;49.020;12.066;2022-10-16T15:02:35;20.90;99.90
8965;DHT22;4517;49.020;12.066;2022-10-16T15:07:40;20.90;99.90
8965;DHT22;4517;49.020;12.066;2022-10-16T15:10:06;20.90;99.90
8965;DHT22;4517;49.020;12.066;2022-10-16T15:12:32;21.00;99.90
8965;DHT22;4517;49.020;12.066;2022-10-16T15:14:57;20.70;99.90
8965;DHT22;4517;49.020;12.066;2022-10-16T15:17:23;20.50;99.90
8965;DHT22;4517;49.020;12.066;2022-10-16T15:19:48;20.40;99.90
8965;DHT22;4517;49.020;12.066;2022-10-16T15:22:14;20.40;99.90
8965;DHT22;4517;49.020;12.066;2022-10-16T15:24:39;20.40;99.90
8965;DHT22;4517;49.020;12.066;2022-10-16T15:27:05;20.40;99.90
8965;DHT22;4517;49.020;12.066;2022-10-16T15:29:31;20.50;99.90
8965;DHT22;4517;49.020;12.066;2022-10-16T15:31:56;20.40;99.90
8965;DHT22;4517;49.020;12.066;2022-10-16T15:34:22;20.30;99.90
8965;DHT22;4517;49.020;12.066;2022-10-16T15:36:47;20.20;99.90
8965;DHT22;4517;49.020;12.066;2022-10-16T15:39:15;20.00;99.90
8965;DHT22;4517;49.020;12.066;2022-10-16T15:41:42;19.90;99.90
8965;DHT22;4517;49.020;12.066;2022-10-16T15:44:09;19.70;99.90
8965;DHT22;4517;49.020;12.066;2022-10-16T15:46:34;19.40;99.90
8965;DHT22;4517;49.020;12.066;2022-10-16T15:49:01;19.30;99.90
8965;DHT22;4517;49.020;12.066;2022-10-16T15:51:27;19.10;99.90
8965;DHT22;4517;49.020;12.066;2022-10-16T15:53:56;19.00;99.90
8965;DHT22;4517;49.020;12.066;2022-10-16T15:56:22;18.80;99.90
8965;DHT22;4517;49.020;12.066;2022-10-16T15:58:49;18.70;99.90
8965;DHT22;4517;49.020;12.066;2022-10-16T16:01:15;18.60;99.90
8965;DHT22;4517;49.020;12.066;2022-10-16T16:03:41;18.50;99.90
8965;DHT22;4517;49.020;12.066;2022-10-16T16:06:10;18.40;99.90
8965;DHT22;4517;49.020;12.066;2022-10-16T16:08:37;18.30;99.90
8965;DHT22;4517;49.020;12.066;2022-10-16T16:11:06;18.10;99.90
8965;DHT22;4517;49.020;12.066;2022-10-16T16:13:32;18.10;99.90
8965;DHT22;4517;49.020;12.066;2022-10-16T16:15:58;17.90;99.90
8965;DHT22;4517;49.020;12.066;2022-10-16T16:18:23;17.90;99.90
8965;DHT22;4517;49.020;12.066;2022-10-16T16:20:50;17.90;99.90
8965;DHT22;4517;49.020;12.066;2022-10-16T16:23:16;17.80;99.90
8965;DHT22;4517;49.020;12.066;2022-10-16T16:25:42;17.70;99.90
8965;DHT22;4517;49.020;12.066;2022-10-16T16:28:08;17.50;99.90
8965;DHT22;4517;49.020;12.066;2022-10-16T16:30:36;17.30;99.90
8965;DHT22;4517;49.020;12.066;2022-10-16T16:33:02;17.30;99.90
8965;DHT22;4517;49.020;12.066;2022-10-16T16:35:27;17.30;99.90
8965;DHT22;4517;49.020;12.066;2022-10-16T16:37:53;17.50;99.90
8965;DHT22;4517;49.020;12.066;2022-10-16T16:40:18;17.40;99.90
8965;DHT22;4517;49.020;12.066;2022-10-16T16:42:44;17.50;99.90
8965;DHT22;4517;49.020;12.066;2022-10-16T16:45:12;17.40;99.90
8965;DHT22;4517;49.020;12.066;2022-10-16T16:47:38;17.40;99.90
8965;DHT22;4517;49.020;12.066;2022-10-16T16:50:04;17.40;99.90
8965;DHT22;4517;49.020;12.066;2022-10-16T16:52:30;17.20;99.90
8965;DHT22;4517;49.020;12.066;2022-10-16T16:54:55;17.00;99.90
8965;DHT22;4517;49.020;12.066;2022-10-16T16:57:21;16.90;99.90
8965;DHT22;4517;49.020;12.066;2022-10-16T16:59:49;16.80;99.90
8965;DHT22;4517;49.020;12.066;2022-10-16T17:02:15;16.70;99.90
8965;DHT22;4517;49.020;12.066;2022-10-16T17:04:40;16.70;99.90
8965;DHT22;4517;49.020;12.066;2022-10-16T17:07:06;16.70;99.90
8965;DHT22;4517;49.020;12.066;2022-10-16T17:09:32;16.50;99.90
8965;DHT22;4517;49.020;12.066;2022-10-16T17:11:58;16.40;99.90
8965;DHT22;4517;49.020;12.066;2022-10-16T17:14:24;16.40;99.90
8965;DHT22;4517;49.020;12.066;2022-10-16T17:16:49;16.40;99.90
8965;DHT22;4517;49.020;12.066;2022-10-16T17:19:18;16.30;99.90
8965;DHT22;4517;49.020;12.066;2022-10-16T17:21:44;16.20;99.90
8965;DHT22;4517;49.020;12.066;2022-10-16T17:24:10;16.10;99.90
8965;DHT22;4517;49.020;12.066;2022-10-16T17:26:37;16.10;99.90
8965;DHT22;4517;49.020;12.066;2022-10-16T17:29:04;16.10;99.90
8965;DHT22;4517;49.020;12.066;2022-10-16T17:31:34;16.10;99.90
8965;DHT22;4517;49.020;12.066;2022-10-16T17:34:03;16.20;99.90
8965;DHT22;4517;49.020;12.066;2022-10-16T17:36:31;16.20;99.90
8965;DHT22;4517;49.020;12.066;2022-10-16T17:39:04;16.20;99.90
8965;DHT22;4517;49.020;12.066;2022-10-16T17:41:31;16.10;99.90
8965;DHT22;4517;49.020;12.066;2022-10-16T17:43:56;16.20;99.90